sensor_id;sensor_type;location;lat;lon;timestamp;P1;durP1;ratioP1;P2;durP2;ratioP2
3943;SDS011;1986;52.546;13.428;2022-09-27T00:00:57;14.80;;;14.30;;
3943;SDS011;1986;52.546;13.428;2022-09-27T00:03:24;14.63;;;14.13;;
3943;SDS011;1986;52.546;13.428;2022-09-27T00:05:59;15.07;;;14.47;;
3943;SDS011;1986;52.546;13.428;2022-09-27T00:08:29;14.63;;;14.13;;
3943;SDS011;1986;52.546;13.428;2022-09-27T00:10:58;15.23;;;14.63;;
3943;SDS011;1986;52.546;13.428;2022-09-27T00:13:25;15.03;;;14.43;;
3943;SDS011;1986;52.546;13.428;2022-09-27T00:15:58;15.20;;;14.60;;
3943;SDS011;1986;52.546;13.428;2022-09-27T00:18:27;15.67;;;14.57;;
3943;SDS011;1986;52.546;13.428;2022-09-27T00:20:54;14.60;;;14.10;;
3943;SDS011;1986;52.546;13.428;2022-09-27T00:23:20;14.90;;;14.30;;
3943;SDS011;1986;52.546;13.428;2022-09-27T00:25:54;16.57;;;15.47;;
3943;SDS011;1986;52.546;13.428;2022-09-27T00:28:23;14.93;;;14.40;;
3943;SDS011;1986;52.546;13.428;2022-09-27T00:30:51;14.80;;;14.30;;
3943;SDS011;1986;52.546;13.428;2022-09-27T00:33:19;15.10;;;14.50;;
3943;SDS011;1986;52.546;13.428;2022-09-27T00:35:46;15.20;;;14.60;;
3943;SDS011;1986;52.546;13.428;2022-09-27T00:38:13;15.10;;;14.50;;
3943;SDS011;1986;52.546;13.428;2022-09-27T00:40:40;14.60;;;14.10;;
3943;SDS011;1986;52.546;13.428;2022-09-27T00:43:17;15.40;;;14.80;;
3943;SDS011;1986;52.546;13.428;2022-09-27T00:45:47;14.60;;;14.10;;
3943;SDS011;1986;52.546;13.428;2022-09-27T00:48:17;14.90;;;14.40;;
3943;SDS011;1986;52.546;13.428;2022-09-27T00:50:51;15.30;;;14.70;;
3943;SDS011;1986;52.546;13.428;2022-09-27T00:53:23;15.10;;;14.50;;
3943;SDS011;1986;52.546;13.428;2022-09-27T00:55:56;14.80;;;14.30;;
3943;SDS011;1986;52.546;13.428;2022-09-27T00:58:27;16.23;;;15.63;;
3943;SDS011;1986;52.546;13.428;2022-09-27T01:00:57;15.00;;;14.40;;
3943;SDS011;1986;52.546;13.428;2022-09-27T01:03:32;15.00;;;14.40;;
3943;SDS011;1986;52.546;13.428;2022-09-27T01:06:02;14.57;;;14.07;;
3943;SDS011;1986;52.546;13.428;2022-09-27T01:08:33;14.80;;;14.30;;
3943;SDS011;1986;52.546;13.428;2022-09-27T01:11:17;15.07;;;14.47;;
3943;SDS011;1986;52.546;13.428;2022-09-27T01:14:01;14.80;;;14.30;;
3943;SDS011;1986;52.546;13.428;2022-09-27T01:16:37;15.30;;;14.70;;
3943;SDS011;1986;52.546;13.428;2022-09-27T01:19:16;15.07;;;14.50;;
3943;SDS011;1986;52.546;13.428;2022-09-27T01:21:55;15.50;;;14.90;;
3943;SDS011;1986;52.546;13.428;2022-09-27T01:24:28;15.57;;;14.97;;
3943;SDS011;1986;52.546;13.428;2022-09-27T01:27:22;16.40;;;15.47;;
3943;SDS011;1986;52.546;13.428;2022-09-27T01:30:22;15.30;;;14.70;;
3943;SDS011;1986;52.546;13.428;2022-09-27T01:32:54;15.00;;;14.43;;
3943;SDS011;1986;52.546;13.428;2022-09-27T01:35:34;15.30;;;14.70;;
3943;SDS011;1986;52.546;13.428;2022-09-27T01:38:10;15.10;;;14.50;;
3943;SDS011;1986;52.546;13.428;2022-09-27T01:40:44;15.60;;;14.90;;
3943;SDS011;1986;52.546;13.428;2022-09-27T01:43:17;15.30;;;14.70;;
3943;SDS011;1986;52.546;13.428;2022-09-27T01:45:50;15.87;;;15.20;;
3943;SDS011;1986;52.546;13.428;2022-09-27T01:48:21;15.70;;;15.10;;
3943;SDS011;1986;52.546;13.428;2022-09-27T01:50:50;15.63;;;15.03;;
3943;SDS011;1986;52.546;13.428;2022-09-27T01:53:22;15.90;;;15.20;;
3943;SDS011;1986;52.546;13.428;2022-09-27T01:55:52;15.40;;;14.80;;
3943;SDS011;1986;52.546;13.428;2022-09-27T01:58:23;16.00;;;15.40;;
3943;SDS011;1986;52.546;13.428;2022-09-27T02:00:55;15.67;;;15.07;;
3943;SDS011;1986;52.546;13.428;2022-09-27T02:03:24;16.27;;;15.57;;
3943;SDS011;1986;52.546;13.428;2022-09-27T02:05:56;15.60;;;15.00;;
3943;SDS011;1986;52.546;13.428;2022-09-27T02:08:28;15.70;;;15.10;;
3943;SDS011;1986;52.546;13.428;2022-09-27T02:11:00;15.90;;;15.30;;
3943;SDS011;1986;52.546;13.428;2022-09-27T02:13:32;15.90;;;15.20;;
3943;SDS011;1986;52.546;13.428;2022-09-27T02:16:08;15.70;;;15.10;;
3943;SDS011;1986;52.546;13.428;2022-09-27T02:18:46;16.00;;;15.40;;
3943;SDS011;1986;52.546;13.428;2022-09-27T02:21:21;15.93;;;15.33;;
3943;SDS011;1986;52.546;13.428;2022-09-27T02:23:56;15.70;;;15.10;;
3943;SDS011;1986;52.546;13.428;2022-09-27T02:26:26;16.00;;;15.40;;
3943;SDS011;1986;52.546;13.428;2022-09-27T02:28:59;16.20;;;15.50;;
3943;SDS011;1986;52.546;13.428;2022-09-27T02:31:32;15.80;;;15.20;;
3943;SDS011;1986;52.546;13.428;2022-09-27T02:34:02;16.53;;;15.83;;
3943;SDS011;1986;52.546;13.428;2022-09-27T02:36:32;17.17;;;15.43;;
3943;SDS011;1986;52.546;13.428;2022-09-27T02:38:59;16.97;;;16.20;;
3943;SDS011;1986;52.546;13.428;2022-09-27T02:41:26;16.20;;;15.50;;
3943;SDS011;1986;52.546;13.428;2022-09-27T02:43:53;15.90;;;15.30;;
3943;SDS011;1986;52.546;13.428;2022-09-27T02:46:25;15.80;;;15.20;;
3943;SDS011;1986;52.546;13.428;2022-09-27T02:49:07;15.67;;;15.07;;
3943;SDS011;1986;52.546;13.428;2022-09-27T02:51:45;15.80;;;15.20;;
3943;SDS011;1986;52.546;13.428;2022-09-27T02:54:22;15.80;;;15.20;;
3943;SDS011;1986;52.546;13.428;2022-09-27T02:57:00;16.03;;;15.43;;
3943;SDS011;1986;52.546;13.428;2022-09-27T02:59:39;16.03;;;15.40;;
3943;SDS011;1986;52.546;13.428;2022-09-27T03:02:17;15.80;;;15.20;;
3943;SDS011;1986;52.546;13.428;2022-09-27T03:04:51;15.70;;;15.10;;
3943;SDS011;1986;52.546;13.428;2022-09-27T03:07:22;15.90;;;15.30;;
3943;SDS011;1986;52.546;13.428;2022-09-27T03:09:50;17.67;;;16.80;;
3943;SDS011;1986;52.546;13.428;2022-09-27T03:12:19;15.50;;;14.90;;
3943;SDS011;1986;52.546;13.428;2022-09-27T03:14:50;17.30;;;16.50;;
3943;SDS011;1986;52.546;13.428;2022-09-27T03:17:18;18.50;;;17.23;;
3943;SDS011;1986;52.546;13.428;2022-09-27T03:19:45;15.70;;;15.10;;
3943;SDS011;1986;52.546;13.428;2022-09-27T03:22:12;15.80;;;15.20;;
3943;SDS011;1986;52.546;13.428;2022-09-27T03:24:39;15.60;;;15.00;;
3943;SDS011;1986;52.546;13.428;2022-09-27T03:27:06;15.50;;;14.90;;
3943;SDS011;1986;52.546;13.428;2022-09-27T03:29:34;15.67;;;15.07;;
3943;SDS011;1986;52.546;13.428;2022-09-27T03:32:01;15.57;;;14.97;;
3943;SDS011;1986;52.546;13.428;2022-09-27T03:34:29;16.30;;;15.70;;
3943;SDS011;1986;52.546;13.428;2022-09-27T03:36:56;16.43;;;15.73;;
3943;SDS011;1986;52.546;13.428;2022-09-27T03:39:23;15.53;;;14.93;;
3943;SDS011;1986;52.546;13.428;2022-09-27T03:41:50;16.23;;;15.63;;
3943;SDS011;1986;52.546;13.428;2022-09-27T03:44:17;15.60;;;15.00;;
3943;SDS011;1986;52.546;13.428;2022-09-27T03:46:44;27.13;;;16.47;;
3943;SDS011;1986;52.546;13.428;2022-09-27T03:49:11;16.57;;;15.87;;
3943;SDS011;1986;52.546;13.428;2022-09-27T03:51:39;16.53;;;15.83;;
3943;SDS011;1986;52.546;13.428;2022-09-27T03:54:09;16.33;;;15.63;;
3943;SDS011;1986;52.546;13.428;2022-09-27T03:56:36;15.60;;;15.00;;
3943;SDS011;1986;52.546;13.428;2022-09-27T03:59:03;15.70;;;15.10;;
3943;SDS011;1986;52.546;13.428;2022-09-27T04:01:29;15.40;;;14.80;;
3943;SDS011;1986;52.546;13.428;2022-09-27T04:03:56;15.07;;;14.50;;
3943;SDS011;1986;52.546;13.428;2022-09-27T04:06:23;15.20;;;14.60;;
3943;SDS011;1986;52.546;13.428;2022-09-27T04:08:52;15.30;;;14.70;;
3943;SDS011;1986;52.546;13.428;2022-09-27T04:11:19;14.93;;;14.33;;
3943;SDS011;1986;52.546;13.428;2022-09-27T04:13:47;14.60;;;14.10;;
3943;SDS011;1986;52.546;13.428;2022-09-27T04:16:14;15.90;;;15.20;;
3943;SDS011;1986;52.546;13.428;2022-09-27T04:18:41;14.47;;;13.97;;
3943;SDS011;1986;52.546;13.428;2022-09-27T04:21:08;14.37;;;13.87;;
3943;SDS011;1986;52.546;13.428;2022-09-27T04:23:35;14.00;;;13.50;;
3943;SDS011;1986;52.546;13.428;2022-09-27T04:26:03;14.30;;;13.80;;
3943;SDS011;1986;52.546;13.428;2022-09-27T04:28:31;14.00;;;13.50;;
3943;SDS011;1986;52.546;13.428;2022-09-27T04:30:58;13.10;;;12.70;;
3943;SDS011;1986;52.546;13.428;2022-09-27T04:33:24;14.17;;;13.67;;
3943;SDS011;1986;52.546;13.428;2022-09-27T04:35:51;13.40;;;13.00;;
3943;SDS011;1986;52.546;13.428;2022-09-27T04:38:36;14.00;;;13.50;;
3943;SDS011;1986;52.546;13.428;2022-09-27T04:41:04;13.53;;;13.13;;
3943;SDS011;1986;52.546;13.428;2022-09-27T04:43:31;14.93;;;14.33;;
3943;SDS011;1986;52.546;13.428;2022-09-27T04:45:58;15.50;;;14.70;;
3943;SDS011;1986;52.546;13.428;2022-09-27T04:48:25;12.80;;;12.40;;
3943;SDS011;1986;52.546;13.428;2022-09-27T04:50:55;13.50;;;13.00;;
3943;SDS011;1986;52.546;13.428;2022-09-27T04:53:22;13.50;;;12.50;;
3943;SDS011;1986;52.546;13.428;2022-09-27T04:55:51;12.27;;;11.90;;
3943;SDS011;1986;52.546;13.428;2022-09-27T04:58:20;11.80;;;11.50;;
3943;SDS011;1986;52.546;13.428;2022-09-27T05:00:47;11.30;;;11.00;;
3943;SDS011;1986;52.546;13.428;2022-09-27T05:03:18;11.53;;;11.20;;
3943;SDS011;1986;52.546;13.428;2022-09-27T05:05:45;11.17;;;10.77;;
3943;SDS011;1986;52.546;13.428;2022-09-27T05:08:12;10.80;;;10.40;;
3943;SDS011;1986;52.546;13.428;2022-09-27T05:10:39;9.77;;;9.57;;
3943;SDS011;1986;52.546;13.428;2022-09-27T05:13:06;9.27;;;9.07;;
3943;SDS011;1986;52.546;13.428;2022-09-27T05:15:34;10.37;;;10.07;;
3943;SDS011;1986;52.546;13.428;2022-09-27T05:18:01;8.23;;;8.03;;
3943;SDS011;1986;52.546;13.428;2022-09-27T05:20:28;8.70;;;8.50;;
3943;SDS011;1986;52.546;13.428;2022-09-27T05:22:55;9.83;;;9.43;;
3943;SDS011;1986;52.546;13.428;2022-09-27T05:25:22;9.70;;;9.43;;
3943;SDS011;1986;52.546;13.428;2022-09-27T05:27:49;10.10;;;9.90;;
3943;SDS011;1986;52.546;13.428;2022-09-27T05:30:16;11.10;;;10.80;;
3943;SDS011;1986;52.546;13.428;2022-09-27T05:32:45;14.93;;;14.43;;
3943;SDS011;1986;52.546;13.428;2022-09-27T05:35:14;29.60;;;28.10;;
3943;SDS011;1986;52.546;13.428;2022-09-27T05:37:42;29.47;;;27.63;;
3943;SDS011;1986;52.546;13.428;2022-09-27T05:40:09;30.33;;;28.63;;
3943;SDS011;1986;52.546;13.428;2022-09-27T05:42:36;28.00;;;26.50;;
3943;SDS011;1986;52.546;13.428;2022-09-27T05:45:04;29.50;;;27.90;;
3943;SDS011;1986;52.546;13.428;2022-09-27T05:47:32;28.50;;;27.00;;
3943;SDS011;1986;52.546;13.428;2022-09-27T05:50:00;26.83;;;25.53;;
3943;SDS011;1986;52.546;13.428;2022-09-27T05:52:27;31.97;;;30.10;;
3943;SDS011;1986;52.546;13.428;2022-09-27T05:54:54;30.63;;;28.73;;
3943;SDS011;1986;52.546;13.428;2022-09-27T05:57:22;29.90;;;28.30;;
3943;SDS011;1986;52.546;13.428;2022-09-27T05:59:49;28.60;;;27.10;;
3943;SDS011;1986;52.546;13.428;2022-09-27T06:02:16;29.03;;;27.40;;
3943;SDS011;1986;52.546;13.428;2022-09-27T06:04:46;26.90;;;25.60;;
3943;SDS011;1986;52.546;13.428;2022-09-27T06:07:15;26.03;;;24.30;;
3943;SDS011;1986;52.546;13.428;2022-09-27T06:09:41;25.77;;;24.37;;
3943;SDS011;1986;52.546;13.428;2022-09-27T06:12:09;24.80;;;23.70;;
3943;SDS011;1986;52.546;13.428;2022-09-27T06:14:36;24.97;;;23.67;;
3943;SDS011;1986;52.546;13.428;2022-09-27T06:17:03;24.53;;;23.43;;
3943;SDS011;1986;52.546;13.428;2022-09-27T06:19:30;24.00;;;22.80;;
3943;SDS011;1986;52.546;13.428;2022-09-27T06:21:59;22.83;;;21.73;;
3943;SDS011;1986;52.546;13.428;2022-09-27T06:24:27;23.13;;;22.13;;
3943;SDS011;1986;52.546;13.428;2022-09-27T06:26:54;22.80;;;21.80;;
3943;SDS011;1986;52.546;13.428;2022-09-27T06:29:22;23.23;;;22.13;;
3943;SDS011;1986;52.546;13.428;2022-09-27T06:31:50;22.70;;;21.70;;
3943;SDS011;1986;52.546;13.428;2022-09-27T06:34:16;24.10;;;23.00;;
3943;SDS011;1986;52.546;13.428;2022-09-27T06:36:43;23.90;;;22.80;;
3943;SDS011;1986;52.546;13.428;2022-09-27T06:39:12;24.10;;;23.00;;
3943;SDS011;1986;52.546;13.428;2022-09-27T06:41:40;24.50;;;23.33;;
3943;SDS011;1986;52.546;13.428;2022-09-27T06:44:08;23.40;;;22.40;;
3943;SDS011;1986;52.546;13.428;2022-09-27T06:46:35;23.17;;;22.17;;
3943;SDS011;1986;52.546;13.428;2022-09-27T06:49:02;24.77;;;23.30;;
3943;SDS011;1986;52.546;13.428;2022-09-27T06:51:29;22.30;;;21.20;;
3943;SDS011;1986;52.546;13.428;2022-09-27T06:53:56;21.53;;;20.63;;
3943;SDS011;1986;52.546;13.428;2022-09-27T06:56:23;21.40;;;20.50;;
3943;SDS011;1986;52.546;13.428;2022-09-27T06:58:51;22.57;;;21.60;;
3943;SDS011;1986;52.546;13.428;2022-09-27T07:01:36;22.43;;;21.43;;
3943;SDS011;1986;52.546;13.428;2022-09-27T07:04:03;21.93;;;21.00;;
3943;SDS011;1986;52.546;13.428;2022-09-27T07:06:31;23.20;;;22.10;;
3943;SDS011;1986;52.546;13.428;2022-09-27T07:08:59;23.53;;;22.30;;
3943;SDS011;1986;52.546;13.428;2022-09-27T07:11:26;22.40;;;21.40;;
3943;SDS011;1986;52.546;13.428;2022-09-27T07:13:54;23.10;;;22.10;;
3943;SDS011;1986;52.546;13.428;2022-09-27T07:16:22;20.97;;;20.17;;
3943;SDS011;1986;52.546;13.428;2022-09-27T07:18:49;20.87;;;20.07;;
3943;SDS011;1986;52.546;13.428;2022-09-27T07:21:16;21.93;;;21.03;;
3943;SDS011;1986;52.546;13.428;2022-09-27T07:23:42;24.10;;;23.00;;
3943;SDS011;1986;52.546;13.428;2022-09-27T07:26:10;22.80;;;21.80;;
3943;SDS011;1986;52.546;13.428;2022-09-27T07:28:37;23.20;;;22.10;;
3943;SDS011;1986;52.546;13.428;2022-09-27T07:31:07;24.77;;;23.57;;
3943;SDS011;1986;52.546;13.428;2022-09-27T07:33:34;24.30;;;23.10;;
3943;SDS011;1986;52.546;13.428;2022-09-27T07:36:05;24.97;;;23.77;;
3943;SDS011;1986;52.546;13.428;2022-09-27T07:38:32;25.00;;;23.70;;
3943;SDS011;1986;52.546;13.428;2022-09-27T07:41:03;24.37;;;23.27;;
3943;SDS011;1986;52.546;13.428;2022-09-27T07:43:31;23.73;;;22.63;;
3943;SDS011;1986;52.546;13.428;2022-09-27T07:45:58;23.40;;;22.30;;
3943;SDS011;1986;52.546;13.428;2022-09-27T07:48:26;25.07;;;23.77;;
3943;SDS011;1986;52.546;13.428;2022-09-27T07:50:53;21.80;;;20.90;;
3943;SDS011;1986;52.546;13.428;2022-09-27T07:53:20;23.10;;;22.10;;
3943;SDS011;1986;52.546;13.428;2022-09-27T07:55:48;22.70;;;21.70;;
3943;SDS011;1986;52.546;13.428;2022-09-27T07:58:17;21.97;;;21.07;;
3943;SDS011;1986;52.546;13.428;2022-09-27T08:00:44;22.00;;;21.00;;
3943;SDS011;1986;52.546;13.428;2022-09-27T08:03:12;21.70;;;20.80;;
3943;SDS011;1986;52.546;13.428;2022-09-27T08:05:41;21.37;;;20.43;;
3943;SDS011;1986;52.546;13.428;2022-09-27T08:08:08;21.27;;;20.37;;
3943;SDS011;1986;52.546;13.428;2022-09-27T08:10:35;20.57;;;19.63;;
3943;SDS011;1986;52.546;13.428;2022-09-27T08:13:08;19.60;;;18.90;;
3943;SDS011;1986;52.546;13.428;2022-09-27T08:15:36;19.70;;;18.60;;
3943;SDS011;1986;52.546;13.428;2022-09-27T08:18:04;18.63;;;17.93;;
3943;SDS011;1986;52.546;13.428;2022-09-27T08:20:33;19.00;;;18.30;;
3943;SDS011;1986;52.546;13.428;2022-09-27T08:23:01;18.20;;;17.60;;
3943;SDS011;1986;52.546;13.428;2022-09-27T08:25:29;17.97;;;17.37;;
3943;SDS011;1986;52.546;13.428;2022-09-27T08:27:56;17.60;;;17.00;;
3943;SDS011;1986;52.546;13.428;2022-09-27T08:30:24;18.10;;;17.40;;
3943;SDS011;1986;52.546;13.428;2022-09-27T08:32:53;16.90;;;16.40;;
3943;SDS011;1986;52.546;13.428;2022-09-27T08:35:21;16.40;;;15.90;;
3943;SDS011;1986;52.546;13.428;2022-09-27T08:37:51;15.03;;;14.60;;
3943;SDS011;1986;52.546;13.428;2022-09-27T08:40:20;14.80;;;14.40;;
3943;SDS011;1986;52.546;13.428;2022-09-27T08:42:54;15.23;;;14.73;;
3943;SDS011;1986;52.546;13.428;2022-09-27T08:45:28;14.20;;;13.80;;
3943;SDS011;1986;52.546;13.428;2022-09-27T08:48:00;14.60;;;14.20;;
3943;SDS011;1986;52.546;13.428;2022-09-27T08:50:30;13.87;;;13.47;;
3943;SDS011;1986;52.546;13.428;2022-09-27T08:53:01;14.47;;;13.87;;
3943;SDS011;1986;52.546;13.428;2022-09-27T08:55:34;13.17;;;12.60;;
3943;SDS011;1986;52.546;13.428;2022-09-27T08:58:08;13.50;;;13.10;;
3943;SDS011;1986;52.546;13.428;2022-09-27T09:00:39;10.40;;;10.20;;
3943;SDS011;1986;52.546;13.428;2022-09-27T09:03:07;9.77;;;9.47;;
3943;SDS011;1986;52.546;13.428;2022-09-27T09:05:55;9.10;;;8.80;;
3943;SDS011;1986;52.546;13.428;2022-09-27T09:08:44;9.90;;;9.70;;
3943;SDS011;1986;52.546;13.428;2022-09-27T09:11:26;9.90;;;9.70;;
3943;SDS011;1986;52.546;13.428;2022-09-27T09:14:30;9.67;;;9.47;;
3943;SDS011;1986;52.546;13.428;2022-09-27T09:17:19;9.87;;;9.67;;
3943;SDS011;1986;52.546;13.428;2022-09-27T09:20:16;9.60;;;9.40;;
3943;SDS011;1986;52.546;13.428;2022-09-27T09:22:59;8.80;;;8.60;;
3943;SDS011;1986;52.546;13.428;2022-09-27T09:25:48;8.30;;;8.20;;
3943;SDS011;1986;52.546;13.428;2022-09-27T09:28:24;9.00;;;8.90;;
3943;SDS011;1986;52.546;13.428;2022-09-27T09:31:03;7.60;;;7.50;;
3943;SDS011;1986;52.546;13.428;2022-09-27T09:33:35;6.60;;;6.50;;
3943;SDS011;1986;52.546;13.428;2022-09-27T09:36:08;7.20;;;7.10;;
3943;SDS011;1986;52.546;13.428;2022-09-27T09:38:39;9.47;;;8.70;;
3943;SDS011;1986;52.546;13.428;2022-09-27T09:41:11;7.20;;;7.00;;
3943;SDS011;1986;52.546;13.428;2022-09-27T09:43:48;6.43;;;6.33;;
3943;SDS011;1986;52.546;13.428;2022-09-27T09:46:19;8.30;;;8.10;;
3943;SDS011;1986;52.546;13.428;2022-09-27T09:48:50;5.00;;;4.90;;
3943;SDS011;1986;52.546;13.428;2022-09-27T09:51:23;6.27;;;6.17;;
3943;SDS011;1986;52.546;13.428;2022-09-27T09:53:55;5.70;;;5.60;;
3943;SDS011;1986;52.546;13.428;2022-09-27T09:56:28;5.87;;;5.77;;
3943;SDS011;1986;52.546;13.428;2022-09-27T09:58:59;5.70;;;5.60;;
3943;SDS011;1986;52.546;13.428;2022-09-27T10:01:32;5.93;;;5.83;;
3943;SDS011;1986;52.546;13.428;2022-09-27T10:04:02;6.10;;;6.00;;
3943;SDS011;1986;52.546;13.428;2022-09-27T10:06:29;6.23;;;6.03;;
3943;SDS011;1986;52.546;13.428;2022-09-27T10:08:57;6.70;;;6.50;;
3943;SDS011;1986;52.546;13.428;2022-09-27T10:11:26;7.10;;;6.97;;
3943;SDS011;1986;52.546;13.428;2022-09-27T10:13:59;5.67;;;5.57;;
3943;SDS011;1986;52.546;13.428;2022-09-27T10:16:27;5.00;;;4.90;;
3943;SDS011;1986;52.546;13.428;2022-09-27T10:18:54;4.50;;;4.40;;
3943;SDS011;1986;52.546;13.428;2022-09-27T10:21:27;4.03;;;3.93;;
3943;SDS011;1986;52.546;13.428;2022-09-27T10:24:05;5.43;;;5.33;;
3943;SDS011;1986;52.546;13.428;2022-09-27T10:26:34;5.30;;;5.20;;
3943;SDS011;1986;52.546;13.428;2022-09-27T10:29:19;4.97;;;4.87;;
3943;SDS011;1986;52.546;13.428;2022-09-27T10:31:48;5.30;;;5.20;;
3943;SDS011;1986;52.546;13.428;2022-09-27T10:34:17;8.63;;;8.13;;
3943;SDS011;1986;52.546;13.428;2022-09-27T10:37:00;6.20;;;6.10;;
3943;SDS011;1986;52.546;13.428;2022-09-27T10:39:29;7.67;;;7.47;;
3943;SDS011;1986;52.546;13.428;2022-09-27T10:41:56;7.30;;;7.20;;
3943;SDS011;1986;52.546;13.428;2022-09-27T10:44:25;6.50;;;6.40;;
3943;SDS011;1986;52.546;13.428;2022-09-27T10:46:54;6.80;;;6.70;;
3943;SDS011;1986;52.546;13.428;2022-09-27T10:49:24;7.27;;;7.17;;
3943;SDS011;1986;52.546;13.428;2022-09-27T10:51:54;9.60;;;9.20;;
3943;SDS011;1986;52.546;13.428;2022-09-27T10:54:24;7.60;;;7.40;;
3943;SDS011;1986;52.546;13.428;2022-09-27T10:56:53;8.83;;;8.43;;
3943;SDS011;1986;52.546;13.428;2022-09-27T10:59:26;9.63;;;9.03;;
3943;SDS011;1986;52.546;13.428;2022-09-27T11:01:56;9.13;;;8.87;;
3943;SDS011;1986;52.546;13.428;2022-09-27T11:04:27;8.83;;;8.63;;
3943;SDS011;1986;52.546;13.428;2022-09-27T11:07:05;8.77;;;8.40;;
3943;SDS011;1986;52.546;13.428;2022-09-27T11:09:43;10.40;;;9.43;;
3943;SDS011;1986;52.546;13.428;2022-09-27T11:12:12;8.00;;;7.90;;
3943;SDS011;1986;52.546;13.428;2022-09-27T11:14:41;8.50;;;8.30;;
3943;SDS011;1986;52.546;13.428;2022-09-27T11:17:18;8.20;;;8.10;;
3943;SDS011;1986;52.546;13.428;2022-09-27T11:20:01;10.20;;;9.60;;
3943;SDS011;1986;52.546;13.428;2022-09-27T11:22:42;8.67;;;8.43;;
3943;SDS011;1986;52.546;13.428;2022-09-27T11:25:37;8.30;;;8.00;;
3943;SDS011;1986;52.546;13.428;2022-09-27T11:28:13;7.00;;;6.90;;
3943;SDS011;1986;52.546;13.428;2022-09-27T11:30:48;6.97;;;6.87;;
3943;SDS011;1986;52.546;13.428;2022-09-27T11:33:29;6.37;;;6.27;;
3943;SDS011;1986;52.546;13.428;2022-09-27T11:36:08;6.20;;;6.10;;
3943;SDS011;1986;52.546;13.428;2022-09-27T11:38:50;5.67;;;5.53;;
3943;SDS011;1986;52.546;13.428;2022-09-27T11:41:29;5.23;;;5.13;;
3943;SDS011;1986;52.546;13.428;2022-09-27T11:47:12;6.90;;;6.53;;
3943;SDS011;1986;52.546;13.428;2022-09-27T11:49:57;7.53;;;6.80;;
3943;SDS011;1986;52.546;13.428;2022-09-27T11:52:54;4.93;;;4.70;;
3943;SDS011;1986;52.546;13.428;2022-09-27T11:55:37;6.23;;;5.87;;
3943;SDS011;1986;52.546;13.428;2022-09-27T11:58:13;7.07;;;6.77;;
3943;SDS011;1986;52.546;13.428;2022-09-27T12:00:49;9.70;;;9.00;;
3943;SDS011;1986;52.546;13.428;2022-09-27T12:03:36;4.93;;;4.83;;
3943;SDS011;1986;52.546;13.428;2022-09-27T12:06:18;4.70;;;4.50;;
3943;SDS011;1986;52.546;13.428;2022-09-27T12:08:50;3.63;;;3.53;;
3943;SDS011;1986;52.546;13.428;2022-09-27T12:11:28;2.80;;;2.80;;
3943;SDS011;1986;52.546;13.428;2022-09-27T12:14:02;2.20;;;2.20;;
3943;SDS011;1986;52.546;13.428;2022-09-27T12:16:32;2.30;;;2.30;;
3943;SDS011;1986;52.546;13.428;2022-09-27T12:19:03;2.37;;;2.27;;
3943;SDS011;1986;52.546;13.428;2022-09-27T12:21:40;1.70;;;1.70;;
3943;SDS011;1986;52.546;13.428;2022-09-27T12:24:08;1.90;;;1.83;;
3943;SDS011;1986;52.546;13.428;2022-09-27T12:26:44;1.30;;;1.30;;
3943;SDS011;1986;52.546;13.428;2022-09-27T12:29:14;1.60;;;1.50;;
3943;SDS011;1986;52.546;13.428;2022-09-27T12:31:46;1.50;;;1.50;;
3943;SDS011;1986;52.546;13.428;2022-09-27T12:34:19;2.43;;;2.33;;
3943;SDS011;1986;52.546;13.428;2022-09-27T12:36:52;3.20;;;3.10;;
3943;SDS011;1986;52.546;13.428;2022-09-27T12:39:27;3.10;;;3.00;;
3943;SDS011;1986;52.546;13.428;2022-09-27T12:41:59;2.83;;;2.83;;
3943;SDS011;1986;52.546;13.428;2022-09-27T12:44:32;3.90;;;3.10;;
3943;SDS011;1986;52.546;13.428;2022-09-27T12:47:06;2.60;;;2.50;;
3943;SDS011;1986;52.546;13.428;2022-09-27T12:49:45;2.33;;;2.13;;
3943;SDS011;1986;52.546;13.428;2022-09-27T12:52:19;6.10;;;3.70;;
3943;SDS011;1986;52.546;13.428;2022-09-27T12:54:54;7.40;;;6.03;;
3943;SDS011;1986;52.546;13.428;2022-09-27T12:57:39;2.67;;;2.57;;
3943;SDS011;1986;52.546;13.428;2022-09-27T13:00:15;2.73;;;2.63;;
3943;SDS011;1986;52.546;13.428;2022-09-27T13:02:59;6.60;;;3.83;;
3943;SDS011;1986;52.546;13.428;2022-09-27T13:05:50;5.20;;;2.97;;
3943;SDS011;1986;52.546;13.428;2022-09-27T13:11:51;4.40;;;4.10;;
3943;SDS011;1986;52.546;13.428;2022-09-27T13:14:28;2.27;;;2.17;;
3943;SDS011;1986;52.546;13.428;2022-09-27T13:16:57;4.20;;;2.10;;
3943;SDS011;1986;52.546;13.428;2022-09-27T13:19:38;3.10;;;2.80;;
3943;SDS011;1986;52.546;13.428;2022-09-27T13:22:10;10.83;;;4.87;;
3943;SDS011;1986;52.546;13.428;2022-09-27T13:28:11;5.37;;;5.07;;
3943;SDS011;1986;52.546;13.428;2022-09-27T13:30:57;5.30;;;5.10;;
3943;SDS011;1986;52.546;13.428;2022-09-27T13:36:19;6.97;;;6.67;;
3943;SDS011;1986;52.546;13.428;2022-09-27T13:39:02;7.93;;;7.30;;
3943;SDS011;1986;52.546;13.428;2022-09-27T13:42:01;6.97;;;6.67;;
3943;SDS011;1986;52.546;13.428;2022-09-27T13:44:39;6.47;;;6.37;;
3943;SDS011;1986;52.546;13.428;2022-09-27T13:47:19;7.83;;;7.73;;
3943;SDS011;1986;52.546;13.428;2022-09-27T13:49:54;7.10;;;7.00;;
3943;SDS011;1986;52.546;13.428;2022-09-27T13:52:28;6.50;;;6.40;;
3943;SDS011;1986;52.546;13.428;2022-09-27T13:54:59;6.60;;;6.50;;
3943;SDS011;1986;52.546;13.428;2022-09-27T13:57:40;6.00;;;5.90;;
3943;SDS011;1986;52.546;13.428;2022-09-27T14:00:09;6.50;;;6.40;;
3943;SDS011;1986;52.546;13.428;2022-09-27T14:02:41;6.30;;;6.20;;
3943;SDS011;1986;52.546;13.428;2022-09-27T14:05:17;6.60;;;6.50;;
3943;SDS011;1986;52.546;13.428;2022-09-27T14:07:48;6.23;;;6.13;;
3943;SDS011;1986;52.546;13.428;2022-09-27T14:10:19;5.70;;;5.60;;
3943;SDS011;1986;52.546;13.428;2022-09-27T14:12:49;6.87;;;6.60;;
3943;SDS011;1986;52.546;13.428;2022-09-27T14:15:18;6.80;;;6.50;;
3943;SDS011;1986;52.546;13.428;2022-09-27T14:17:48;5.93;;;5.70;;
3943;SDS011;1986;52.546;13.428;2022-09-27T14:20:29;6.90;;;6.63;;
3943;SDS011;1986;52.546;13.428;2022-09-27T14:23:01;7.27;;;7.07;;
3943;SDS011;1986;52.546;13.428;2022-09-27T14:25:30;5.90;;;5.80;;
3943;SDS011;1986;52.546;13.428;2022-09-27T14:27:57;5.87;;;5.77;;
3943;SDS011;1986;52.546;13.428;2022-09-27T14:30:25;7.37;;;6.97;;
3943;SDS011;1986;52.546;13.428;2022-09-27T14:32:54;6.87;;;6.50;;
3943;SDS011;1986;52.546;13.428;2022-09-27T14:35:25;6.20;;;5.90;;
3943;SDS011;1986;52.546;13.428;2022-09-27T14:38:11;5.43;;;5.33;;
3943;SDS011;1986;52.546;13.428;2022-09-27T14:40:44;7.23;;;6.80;;
3943;SDS011;1986;52.546;13.428;2022-09-27T14:43:23;7.93;;;6.37;;
3943;SDS011;1986;52.546;13.428;2022-09-27T14:45:51;8.20;;;7.60;;
3943;SDS011;1986;52.546;13.428;2022-09-27T14:48:25;7.90;;;7.13;;
3943;SDS011;1986;52.546;13.428;2022-09-27T14:50:54;9.33;;;8.87;;
3943;SDS011;1986;52.546;13.428;2022-09-27T14:53:25;8.40;;;8.20;;
3943;SDS011;1986;52.546;13.428;2022-09-27T14:55:55;8.63;;;8.43;;
3943;SDS011;1986;52.546;13.428;2022-09-27T14:58:22;8.30;;;8.10;;
3943;SDS011;1986;52.546;13.428;2022-09-27T15:00:52;8.67;;;8.23;;
3943;SDS011;1986;52.546;13.428;2022-09-27T15:03:20;7.87;;;7.70;;
3943;SDS011;1986;52.546;13.428;2022-09-27T15:05:55;9.00;;;8.70;;
3943;SDS011;1986;52.546;13.428;2022-09-27T15:08:24;8.53;;;8.33;;
3943;SDS011;1986;52.546;13.428;2022-09-27T15:10:55;7.47;;;7.37;;
3943;SDS011;1986;52.546;13.428;2022-09-27T15:13:23;8.00;;;7.90;;
3943;SDS011;1986;52.546;13.428;2022-09-27T15:15:51;8.73;;;8.53;;
3943;SDS011;1986;52.546;13.428;2022-09-27T15:18:30;7.97;;;7.77;;
3943;SDS011;1986;52.546;13.428;2022-09-27T15:20:58;8.37;;;8.17;;
3943;SDS011;1986;52.546;13.428;2022-09-27T15:23:27;9.87;;;9.47;;
3943;SDS011;1986;52.546;13.428;2022-09-27T15:25:57;8.53;;;8.03;;